Time;durP1;ratioP1;P1;durP2;ratioP2;P2;SDS_P1;SDS_P2;PMS_P1;PMS_P2;Temp;Humidity;BMP_temperature;BMP_pressure;BME280_temperature;BME280_humidity;BME280_pressure;Samples;Min_cycle;Max_cycle;Signal;HPM_P1;HPM_P2
2021/04/04 00:03:19;;;;;;;11.93;5.87;;;;;;;-1.33;73.31;99921.64;471282;1169;114048;-63
2021/04/04 00:13:23;;;;;;;9.53;5.67;;;;;;;-1.41;73.08;99926.87;471405;1168;114497;-63
2021/04/04 00:23:26;;;;;;;9.10;4.47;;;;;;;-1.51;73.42;99932.10;471144;1169;115224;-62
2021/04/04 00:33:30;;;;;;;7.77;4.27;;;;;;;-1.58;73.90;99933.88;471789;1171;114498;-62
2021/04/04 00:43:34;;;;;;;8.87;5.03;;;;;;;-1.61;74.13;99941.64;471359;1170;113719;-62
2021/04/04 00:53:38;;;;;;;7.75;4.70;;;;;;;-1.72;74.57;99949.47;471721;1168;113974;-62
2021/04/04 01:03:41;;;;;;;12.43;5.30;;;;;;;-1.85;74.68;99952.14;471398;1168;113931;-62
2021/04/04 01:13:55;;;;;;;8.77;4.20;;;;;;;-1.94;74.63;99959.05;471844;1169;114369;-62
2021/04/04 01:24:21;;;;;;;10.43;5.97;;;;;;;-2.07;75.38;99966.84;471562;1168;114165;-60
2021/04/04 01:34:27;;;;;;;7.77;3.80;;;;;;;-2.17;75.37;99965.19;471416;1168;115253;-63
2021/04/04 01:44:32;;;;;;;8.95;4.75;;;;;;;-2.27;75.71;99959.25;463024;1169;10001589;-62
2021/04/04 01:54:36;;;;;;;7.47;3.70;;;;;;;-2.40;76.04;99950.73;471623;1170;114863;-62
2021/04/04 02:04:41;;;;;;;10.30;6.50;;;;;;;-2.55;76.58;99949.95;471990;1168;114026;-63
2021/04/04 02:14:48;;;;;;;8.10;5.13;;;;;;;-2.57;76.83;99959.39;471823;1170;114460;-62
2021/04/04 02:24:52;;;;;;;8.47;4.97;;;;;;;-2.54;76.95;99959.38;471734;1169;114353;-63
2021/04/04 02:34:59;;;;;;;10.00;5.70;;;;;;;-2.57;77.23;99964.54;471183;1169;114205;-63
2021/04/04 02:45:07;;;;;;;6.20;4.83;;;;;;;-2.60;77.36;99961.12;471934;1169;114320;-62
2021/04/04 02:55:13;;;;;;;7.70;5.10;;;;;;;-2.73;77.67;99961.17;472150;1168;114151;-63
2021/04/04 03:05:18;;;;;;;8.97;5.43;;;;;;;-2.93;77.38;99965.50;471396;1169;113828;-61
2021/04/04 03:15:23;;;;;;;7.10;5.07;;;;;;;-3.19;77.85;99972.40;472333;1170;114219;-63
2021/04/04 03:25:28;;;;;;;7.07;4.30;;;;;;;-3.42;77.87;99970.71;471861;1169;114193;-63
2021/04/04 03:35:34;;;;;;;8.48;4.55;;;;;;;-3.55;78.05;99976.71;471548;1170;114291;-63
2021/04/04 03:45:38;;;;;;;11.40;5.60;;;;;;;-3.67;78.55;99975.85;471774;1170;114242;-63
2021/04/04 03:55:44;;;;;;;10.27;6.47;;;;;;;-3.80;78.57;99977.58;472070;1168;114794;-63
2021/04/04 04:05:50;;;;;;;12.60;6.37;;;;;;;-3.87;79.15;99973.28;471974;1168;113992;-63
2021/04/04 04:15:54;;;;;;;10.83;6.55;;;;;;;-3.87;79.25;99973.28;472326;1170;114207;-63
2021/04/04 04:25:58;;;;;;;13.27;7.43;;;;;;;-3.72;79.48;99969.00;471647;1168;114538;-62
2021/04/04 04:36:03;;;;;;;11.60;6.37;;;;;;;-3.45;79.35;99959.61;472092;1169;114485;-62
2021/04/04 04:46:07;;;;;;;15.33;7.57;;;;;;;-3.11;79.01;99972.41;472260;1169;114408;-63
2021/04/04 04:56:12;;;;;;;11.07;6.87;;;;;;;-2.86;79.29;99977.49;472206;1168;114408;-64
2021/04/04 05:06:18;;;;;;;12.85;8.20;;;;;;;-2.56;79.44;99988.52;471927;1171;114347;-61
2021/04/04 05:16:23;;;;;;;20.30;10.68;;;;;;;-1.70;78.74;99992.34;472499;1170;114738;-63
2021/04/04 05:26:28;;;;;;;12.60;7.73;;;;;;;3.32;72.77;99977.67;472157;1168;114243;-62
2021/04/04 05:36:31;;;;;;;12.83;7.83;;;;;;;11.78;69.05;99963.38;472512;1168;114316;-63
2021/04/04 05:46:37;;;;;;;8.50;5.35;;;;;;;17.29;55.29;99940.42;471591;1170;114244;-63
2021/04/04 05:56:46;;;;;;;7.43;6.20;;;;;;;20.33;51.04;99938.16;471937;1168;114329;-62
2021/04/04 06:07:26;;;;;;;8.97;5.93;;;;;;;24.63;43.80;99932.95;471982;1168;114031;-62
2021/04/04 06:17:37;;;;;;;7.47;6.20;;;;;;;24.21;38.85;99952.06;471497;1168;114821;-62
2021/04/04 06:27:47;;;;;;;8.10;6.13;;;;;;;24.78;35.51;99957.17;471554;1168;115307;-63
2021/04/04 06:38:23;;;;;;;7.20;6.58;;;;;;;26.97;34.37;99960.02;471634;1170;114068;-64
2021/04/04 06:48:42;;;;;;;;;;;;;;;26.98;29.77;99955.48;471418;1168;114564;-63
2021/04/04 06:59:06;;;;;;;5.80;4.40;;;;;;;28.91;28.37;99963.47;471450;1170;100319;-62
2021/04/04 07:09:26;;;;;;;5.43;4.50;;;;;;;28.44;26.02;99966.16;471401;1170;114647;-62
2021/04/04 07:19:59;;;;;;;5.45;4.10;;;;;;;31.67;25.97;99971.53;471687;1170;114684;-63
2021/04/04 07:40:39;;;;;;;3.13;2.53;;;;;;;32.39;21.03;99969.92;471864;1169;114406;-62
2021/04/04 07:50:52;;;;;;;2.15;1.50;;;;;;;31.26;18.64;99963.07;472015;1170;114007;-62
2021/04/04 08:00:59;;;;;;;;;;;;;;;32.61;17.85;99969.35;471419;1171;114349;-61
2021/04/04 08:11:13;;;;;;;1.15;0.95;;;;;;;31.66;17.87;99969.04;472252;1171;100229;-63
2021/04/04 08:21:25;;;;;;;1.10;1.00;;;;;;;32.06;16.84;99967.68;471868;1168;114107;-62
2021/04/04 08:31:32;;;;;;;1.63;1.28;;;;;;;31.25;15.50;99966.84;471827;1169;114405;-63
2021/04/04 08:41:38;;;;;;;2.23;1.33;;;;;;;26.58;16.45;99969.46;472286;1170;114058;-63
2021/04/04 08:51:47;;;;;;;1.03;0.80;;;;;;;16.26;19.73;99975.45;472533;1170;114397;-62
2021/04/04 09:02:00;;;;;;;2.03;0.60;;;;;;;12.86;22.62;99978.38;472362;1169;114040;-63
2021/04/04 09:12:06;;;;;;;1.63;0.40;;;;;;;11.16;24.19;99974.20;472455;1170;115192;-63
2021/04/04 09:22:14;;;;;;;0.70;0.30;;;;;;;10.37;25.85;99963.86;478544;1168;114996;-62
2021/04/04 09:32:30;;;;;;;2.25;0.40;;;;;;;9.80;27.17;99949.53;473787;1170;114011;-72
2021/04/04 09:42:36;;;;;;;0.73;0.33;;;;;;;9.37;27.87;99943.09;472250;1168;114096;-71
2021/04/04 09:52:40;;;;;;;1.43;0.93;;;;;;;9.10;28.35;99940.98;472759;1170;113809;-71
2021/04/04 10:02:44;;;;;;;1.43;0.63;;;;;;;9.54;29.39;99936.08;472472;1169;114051;-69
2021/04/04 10:12:59;;;;;;;1.40;0.60;;;;;;;9.50;29.14;99924.08;457116;1171;20002102;-70
2021/04/04 10:23:04;;;;;;;2.00;1.00;;;;;;;9.74;29.20;99913.17;471628;1168;114109;-70
2021/04/04 10:33:23;;;;;;;1.77;0.90;;;;;;;9.86;29.44;99911.63;471839;1170;114066;-73
2021/04/04 10:43:37;;;;;;;2.60;1.75;;;;;;;9.02;30.03;99901.27;471832;1171;113949;-70
2021/04/04 10:53:42;;;;;;;1.95;1.10;;;;;;;8.25;30.89;99882.42;471277;1168;114403;-70
2021/04/04 11:03:46;;;;;;;2.05;1.20;;;;;;;8.85;30.91;99877.72;471107;1168;113613;-69
2021/04/04 11:13:53;;;;;;;2.30;0.90;;;;;;;8.52;30.61;99864.52;471434;1170;114076;-71
2021/04/04 11:23:57;;;;;;;2.97;1.10;;;;;;;8.88;31.59;99859.22;471514;1169;114371;-72
2021/04/04 11:34:25;;;;;;;1.53;1.20;;;;;;;8.74;31.68;99860.80;471564;1168;114513;-72
2021/04/04 11:44:31;;;;;;;4.68;1.65;;;;;;;9.38;31.87;99853.05;471251;1170;113783;-72
2021/04/04 11:54:51;;;;;;;1.90;1.70;;;;;;;9.55;32.25;99843.39;471847;1170;113898;-72
2021/04/04 12:05:03;;;;;;;2.47;1.57;;;;;;;8.86;31.96;99821.80;471446;1170;114171;-72
2021/04/04 12:15:11;;;;;;;2.47;1.80;;;;;;;8.92;32.36;99818.87;472043;1168;113771;-71
2021/04/04 12:25:16;;;;;;;3.45;1.65;;;;;;;9.32;32.20;99800.13;471867;1168;113606;-69
2021/04/04 12:35:23;;;;;;;3.50;2.23;;;;;;;9.14;32.19;99770.55;471203;1170;113820;-73
2021/04/04 12:45:33;;;;;;;3.30;2.05;;;;;;;8.84;32.39;99766.91;473315;1170;114714;-72
2021/04/04 12:55:37;;;;;;;3.57;2.13;;;;;;;9.13;32.41;99740.88;472547;1169;113813;-73
2021/04/04 13:05:43;;;;;;;3.73;2.63;;;;;;;8.86;32.87;99728.39;471961;1168;113702;-70
2021/04/04 13:15:48;;;;;;;4.87;3.53;;;;;;;8.85;33.09;99726.70;472043;1170;115529;-70
2021/04/04 13:25:52;;;;;;;4.33;3.03;;;;;;;8.65;33.59;99718.16;471755;1168;113831;-71
2021/04/04 13:35:56;;;;;;;3.40;2.57;;;;;;;8.69;33.85;99700.52;471186;1170;113775;-71
2021/04/04 13:46:00;;;;;;;5.53;2.80;;;;;;;8.53;33.05;99677.77;471337;1168;114389;-71
2021/04/04 13:56:13;;;;;;;6.33;3.33;;;;;;;8.40;33.76;99672.34;472327;1169;113652;-70
2021/04/04 14:06:17;;;;;;;5.07;3.70;;;;;;;8.03;34.37;99649.91;471623;1169;113800;-71
2021/04/04 14:16:22;;;;;;;4.00;2.80;;;;;;;8.08;34.95;99638.27;472419;1169;114039;-71
2021/04/04 14:26:25;;;;;;;8.47;4.67;;;;;;;7.96;34.70;99639.78;471633;1170;113966;-70
2021/04/04 14:36:30;;;;;;;4.23;3.27;;;;;;;7.87;35.15;99637.64;471507;1168;113852;-70
2021/04/04 14:46:34;;;;;;;4.27;2.90;;;;;;;7.45;35.43;99613.64;470777;1169;113783;-67
2021/04/04 14:56:40;;;;;;;5.67;3.37;;;;;;;7.70;36.19;99600.14;470565;1168;114255;-67
2021/04/04 15:06:47;;;;;;;5.67;2.73;;;;;;;7.24;36.70;99592.04;473277;1169;113957;-65
2021/04/04 15:16:50;;;;;;;4.87;2.90;;;;;;;7.15;37.12;99591.57;471271;1170;114124;-61
2021/04/04 15:26:56;;;;;;;5.00;3.25;;;;;;;7.20;37.75;99573.06;471434;1171;114752;-63
2021/04/04 15:36:59;;;;;;;5.43;3.10;;;;;;;7.12;38.16;99570.84;471510;1170;114867;-62
2021/04/04 15:47:04;;;;;;;3.90;2.70;;;;;;;6.85;38.47;99546.95;471041;1169;114069;-62
2021/04/04 15:57:08;;;;;;;7.47;4.20;;;;;;;6.77;38.65;99536.06;471319;1170;114951;-62
2021/04/04 16:07:12;;;;;;;4.17;3.47;;;;;;;6.56;39.15;99521.36;471765;1171;114482;-63
2021/04/04 16:17:15;;;;;;;3.07;2.47;;;;;;;6.32;39.78;99494.72;471749;1170;113819;-63
2021/04/04 16:27:19;;;;;;;4.70;2.90;;;;;;;6.23;39.95;99485.55;471888;1168;114393;-62
2021/04/04 16:37:23;;;;;;;4.75;3.00;;;;;;;6.14;40.35;99472.97;471418;1170;114391;-62
2021/04/04 16:47:27;;;;;;;6.65;3.20;;;;;;;5.88;40.98;99468.03;471480;1169;114354;-61
2021/04/04 16:57:31;;;;;;;4.03;2.80;;;;;;;5.31;42.41;99462.81;471785;1170;114019;-61
2021/04/04 17:07:36;;;;;;;7.20;4.27;;;;;;;4.75;42.98;99453.02;471775;1169;114019;-62
2021/04/04 17:17:41;;;;;;;10.70;5.20;;;;;;;4.28;43.98;99445.42;471446;1171;114535;-61
2021/04/04 17:27:45;;;;;;;14.57;6.80;;;;;;;3.84;45.43;99441.92;471478;1170;113933;-61
2021/04/04 17:37:49;;;;;;;20.67;12.17;;;;;;;3.45;45.96;99432.98;471690;1170;114313;-64
2021/04/04 17:47:53;;;;;;;31.13;22.37;;;;;;;3.12;46.99;99416.91;471718;1170;114276;-65
2021/04/04 17:57:57;;;;;;;24.80;15.50;;;;;;;2.87;47.97;99418.62;471646;1169;114109;-64
2021/04/04 18:18:28;;;;;;;;;;;;;;;2.47;49.66;99402.69;472112;1170;114595;-64
2021/04/04 18:28:32;;;;;;;50.63;23.87;;;;;;;2.27;50.21;99392.16;471474;1170;100441;-67
2021/04/04 18:38:36;;;;;;;37.18;20.78;;;;;;;2.09;50.71;99373.72;472096;1169;114030;-62
2021/04/04 18:48:40;;;;;;;35.77;19.13;;;;;;;1.94;51.56;99377.64;475269;1169;114876;-62
2021/04/04 18:58:44;;;;;;;45.47;19.83;;;;;;;1.84;51.55;99364.16;481028;1168;114471;-66
2021/04/04 19:08:49;;;;;;;37.43;18.70;;;;;;;1.73;52.03;99353.29;470843;1168;114455;-66
2021/04/04 19:18:52;;;;;;;37.40;19.47;;;;;;;1.58;53.24;99341.66;471927;1169;115174;-70
2021/04/04 19:28:56;;;;;;;30.95;16.35;;;;;;;1.42;53.82;99330.94;472160;1168;114620;-71
2021/04/04 19:39:01;;;;;;;33.77;18.30;;;;;;;1.34;54.26;99308.75;471223;1170;114950;-71
2021/04/04 19:49:05;;;;;;;28.60;13.30;;;;;;;1.24;54.48;99294.41;472323;1171;114423;-69
2021/04/04 19:59:08;;;;;;;19.20;10.47;;;;;;;1.10;55.55;99289.64;471266;1169;114680;-70
2021/04/04 20:09:12;;;;;;;16.70;9.25;;;;;;;1.11;55.75;99273.23;471419;1169;114212;-70
2021/04/04 20:19:16;;;;;;;11.53;7.90;;;;;;;1.14;56.22;99270.53;471334;1170;114126;-70
2021/04/04 20:29:20;;;;;;;20.37;9.37;;;;;;;1.11;56.36;99260.30;471374;1168;114202;-71
2021/04/04 20:39:23;;;;;;;16.30;7.80;;;;;;;0.97;57.21;99251.22;471443;1169;114512;-71
2021/04/04 20:49:27;;;;;;;18.17;7.77;;;;;;;0.89;56.97;99237.67;471089;1169;114253;-71
2021/04/04 20:59:31;;;;;;;13.30;7.35;;;;;;;0.78;57.77;99216.46;471662;1170;114267;-70
2021/04/04 21:09:35;;;;;;;12.97;7.03;;;;;;;0.74;57.73;99202.78;471451;1169;115052;-69
2021/04/04 21:19:39;;;;;;;15.50;8.07;;;;;;;0.69;58.07;99189.16;471269;1169;114480;-69
2021/04/04 21:29:43;;;;;;;13.85;8.35;;;;;;;0.64;58.21;99172.96;471448;1170;114197;-71
2021/04/04 21:39:46;;;;;;;13.67;9.27;;;;;;;0.52;58.26;99156.07;471463;1169;114612;-70
2021/04/04 21:49:50;;;;;;;11.50;6.87;;;;;;;0.41;59.06;99136.56;471200;1170;114735;-69
2021/04/04 21:59:54;;;;;;;15.17;8.80;;;;;;;0.39;59.48;99122.00;471874;1169;114236;-68
2021/04/04 22:09:58;;;;;;;15.57;7.97;;;;;;;0.38;59.41;99097.06;471187;1170;114564;-70
2021/04/04 22:20:10;;;;;;;13.00;8.05;;;;;;;0.30;59.72;99076.63;471240;1170;114185;-69
2021/04/04 22:30:19;;;;;;;12.20;8.33;;;;;;;0.24;60.63;99061.34;471488;1170;114302;-69
2021/04/04 22:40:23;;;;;;;17.87;8.67;;;;;;;0.19;60.38;99043.41;471459;1170;114343;-69
2021/04/04 22:50:27;;;;;;;13.10;8.40;;;;;;;0.11;60.41;99009.21;471502;1169;114223;-70
2021/04/04 23:00:30;;;;;;;17.30;8.70;;;;;;;0.07;60.91;99008.45;470862;1169;114547;-70
2021/04/04 23:10:34;;;;;;;15.70;9.07;;;;;;;0.05;60.86;98988.73;471338;1169;114155;-68
2021/04/04 23:20:39;;;;;;;10.47;7.83;;;;;;;-0.06;61.21;98961.54;471711;1168;114458;-70
2021/04/04 23:30:45;;;;;;;16.20;8.73;;;;;;;-0.11;61.42;98945.33;471708;1169;114354;-69
2021/04/04 23:40:50;;;;;;;13.90;7.83;;;;;;;-0.17;61.61;98927.47;471536;1169;114730;-70
2021/04/04 23:50:55;;;;;;;10.10;6.70;;;;;;;-0.19;61.76;98918.91;471769;1164;115418;-71
